sensor_id;sensor_type;location;lat;lon;timestamp;P1;durP1;ratioP1;P2;durP2;ratioP2
7841;SDS011;3966;51.052;13.820;2022-11-20T00:01:07;36.70;;;12.40;;
7841;SDS011;3966;51.052;13.820;2022-11-20T00:03:34;33.05;;;12.65;;
7841;SDS011;3966;51.052;13.820;2022-11-20T00:06:00;33.25;;;12.45;;
7841;SDS011;3966;51.052;13.820;2022-11-20T00:08:30;43.25;;;13.07;;
7841;SDS011;3966;51.052;13.820;2022-11-20T00:10:55;32.88;;;13.02;;
7841;SDS011;3966;51.052;13.820;2022-11-20T00:13:21;37.50;;;13.15;;
7841;SDS011;3966;51.052;13.820;2022-11-20T00:15:47;32.60;;;13.05;;
7841;SDS011;3966;51.052;13.820;2022-11-20T00:18:12;38.00;;;13.57;;
7841;SDS011;3966;51.052;13.820;2022-11-20T00:20:38;34.15;;;12.48;;
7841;SDS011;3966;51.052;13.820;2022-11-20T00:23:04;38.65;;;12.05;;
7841;SDS011;3966;51.052;13.820;2022-11-20T00:25:30;36.40;;;12.60;;
7841;SDS011;3966;51.052;13.820;2022-11-20T00:27:56;32.10;;;12.13;;
7841;SDS011;3966;51.052;13.820;2022-11-20T00:30:21;35.85;;;13.50;;
7841;SDS011;3966;51.052;13.820;2022-11-20T00:32:47;43.35;;;13.52;;
7841;SDS011;3966;51.052;13.820;2022-11-20T00:35:12;37.90;;;14.02;;
7841;SDS011;3966;51.052;13.820;2022-11-20T00:37:38;42.42;;;15.10;;
7841;SDS011;3966;51.052;13.820;2022-11-20T00:40:04;42.47;;;15.40;;
7841;SDS011;3966;51.052;13.820;2022-11-20T00:42:30;51.28;;;20.25;;
7841;SDS011;3966;51.052;13.820;2022-11-20T00:44:57;44.72;;;15.48;;
7841;SDS011;3966;51.052;13.820;2022-11-20T00:47:23;35.50;;;12.63;;
7841;SDS011;3966;51.052;13.820;2022-11-20T00:49:48;34.67;;;12.30;;
7841;SDS011;3966;51.052;13.820;2022-11-20T00:52:14;33.40;;;11.73;;
7841;SDS011;3966;51.052;13.820;2022-11-20T00:54:39;44.85;;;13.43;;
7841;SDS011;3966;51.052;13.820;2022-11-20T00:57:05;38.45;;;12.95;;
7841;SDS011;3966;51.052;13.820;2022-11-20T00:59:30;36.83;;;12.45;;
7841;SDS011;3966;51.052;13.820;2022-11-20T01:01:56;41.50;;;12.40;;
7841;SDS011;3966;51.052;13.820;2022-11-20T01:04:21;33.53;;;11.95;;
7841;SDS011;3966;51.052;13.820;2022-11-20T01:06:47;37.97;;;12.05;;
7841;SDS011;3966;51.052;13.820;2022-11-20T01:09:13;38.78;;;13.48;;
7841;SDS011;3966;51.052;13.820;2022-11-20T01:11:40;33.97;;;12.25;;
7841;SDS011;3966;51.052;13.820;2022-11-20T01:14:09;31.45;;;12.35;;
7841;SDS011;3966;51.052;13.820;2022-11-20T01:16:39;40.05;;;12.68;;
7841;SDS011;3966;51.052;13.820;2022-11-20T01:19:07;47.83;;;15.63;;
7841;SDS011;3966;51.052;13.820;2022-11-20T01:21:37;40.60;;;15.52;;
7841;SDS011;3966;51.052;13.820;2022-11-20T01:24:06;55.45;;;17.85;;
7841;SDS011;3966;51.052;13.820;2022-11-20T01:26:34;51.70;;;16.52;;
7841;SDS011;3966;51.052;13.820;2022-11-20T01:29:01;38.20;;;14.73;;
7841;SDS011;3966;51.052;13.820;2022-11-20T01:31:32;47.25;;;16.75;;
7841;SDS011;3966;51.052;13.820;2022-11-20T01:34:00;40.55;;;14.13;;
7841;SDS011;3966;51.052;13.820;2022-11-20T01:36:28;45.58;;;15.07;;
7841;SDS011;3966;51.052;13.820;2022-11-20T01:38:55;36.83;;;13.77;;
7841;SDS011;3966;51.052;13.820;2022-11-20T01:41:23;52.08;;;15.30;;
7841;SDS011;3966;51.052;13.820;2022-11-20T01:44:08;51.30;;;16.25;;
7841;SDS011;3966;51.052;13.820;2022-11-20T01:46:35;60.20;;;17.98;;
7841;SDS011;3966;51.052;13.820;2022-11-20T01:49:10;72.43;;;22.00;;
7841;SDS011;3966;51.052;13.820;2022-11-20T01:51:56;54.60;;;18.85;;
7841;SDS011;3966;51.052;13.820;2022-11-20T01:55:00;64.18;;;18.23;;
7841;SDS011;3966;51.052;13.820;2022-11-20T01:57:21;76.97;;;19.90;;
7841;SDS011;3966;51.052;13.820;2022-11-20T01:59:52;64.45;;;20.63;;
7841;SDS011;3966;51.052;13.820;2022-11-20T02:02:21;59.78;;;18.95;;
7841;SDS011;3966;51.052;13.820;2022-11-20T02:04:47;56.85;;;19.85;;
7841;SDS011;3966;51.052;13.820;2022-11-20T02:07:16;42.08;;;14.20;;
7841;SDS011;3966;51.052;13.820;2022-11-20T02:09:42;40.85;;;13.15;;
7841;SDS011;3966;51.052;13.820;2022-11-20T02:12:07;39.90;;;13.05;;
7841;SDS011;3966;51.052;13.820;2022-11-20T02:14:53;41.03;;;12.80;;
7841;SDS011;3966;51.052;13.820;2022-11-20T02:17:18;35.35;;;12.27;;
7841;SDS011;3966;51.052;13.820;2022-11-20T02:19:44;38.50;;;12.95;;
7841;SDS011;3966;51.052;13.820;2022-11-20T02:22:14;44.90;;;14.85;;
7841;SDS011;3966;51.052;13.820;2022-11-20T02:24:53;42.55;;;15.98;;
7841;SDS011;3966;51.052;13.820;2022-11-20T02:27:19;46.53;;;16.23;;
7841;SDS011;3966;51.052;13.820;2022-11-20T02:30:02;47.35;;;15.02;;
7841;SDS011;3966;51.052;13.820;2022-11-20T02:32:33;38.00;;;14.18;;
7841;SDS011;3966;51.052;13.820;2022-11-20T02:35:07;37.38;;;12.35;;
7841;SDS011;3966;51.052;13.820;2022-11-20T02:37:46;36.50;;;13.00;;
7841;SDS011;3966;51.052;13.820;2022-11-20T02:40:13;39.22;;;13.77;;
7841;SDS011;3966;51.052;13.820;2022-11-20T02:42:39;39.75;;;13.32;;
7841;SDS011;3966;51.052;13.820;2022-11-20T02:45:05;31.95;;;12.23;;
7841;SDS011;3966;51.052;13.820;2022-11-20T02:47:31;40.05;;;12.40;;
7841;SDS011;3966;51.052;13.820;2022-11-20T02:49:57;39.75;;;12.65;;
7841;SDS011;3966;51.052;13.820;2022-11-20T02:52:23;34.50;;;12.77;;
7841;SDS011;3966;51.052;13.820;2022-11-20T02:54:49;33.85;;;12.52;;
7841;SDS011;3966;51.052;13.820;2022-11-20T02:57:15;44.47;;;13.20;;
7841;SDS011;3966;51.052;13.820;2022-11-20T02:59:40;36.03;;;13.07;;
7841;SDS011;3966;51.052;13.820;2022-11-20T03:02:06;38.80;;;13.00;;
7841;SDS011;3966;51.052;13.820;2022-11-20T03:04:31;41.03;;;13.80;;
7841;SDS011;3966;51.052;13.820;2022-11-20T03:06:57;38.25;;;12.90;;
7841;SDS011;3966;51.052;13.820;2022-11-20T03:09:22;38.03;;;12.82;;
7841;SDS011;3966;51.052;13.820;2022-11-20T03:11:48;35.15;;;12.65;;
7841;SDS011;3966;51.052;13.820;2022-11-20T03:14:13;32.70;;;12.20;;
7841;SDS011;3966;51.052;13.820;2022-11-20T03:16:39;47.08;;;13.32;;
7841;SDS011;3966;51.052;13.820;2022-11-20T03:19:05;36.67;;;12.57;;
7841;SDS011;3966;51.052;13.820;2022-11-20T03:21:32;33.60;;;10.57;;
7841;SDS011;3966;51.052;13.820;2022-11-20T03:23:58;28.42;;;10.05;;
7841;SDS011;3966;51.052;13.820;2022-11-20T03:26:25;40.53;;;12.57;;
7841;SDS011;3966;51.052;13.820;2022-11-20T03:28:52;36.78;;;12.32;;
7841;SDS011;3966;51.052;13.820;2022-11-20T03:31:24;34.95;;;11.35;;
7841;SDS011;3966;51.052;13.820;2022-11-20T03:33:57;37.47;;;11.63;;
7841;SDS011;3966;51.052;13.820;2022-11-20T03:36:23;37.10;;;11.38;;
7841;SDS011;3966;51.052;13.820;2022-11-20T03:38:50;30.38;;;10.40;;
7841;SDS011;3966;51.052;13.820;2022-11-20T03:41:26;35.85;;;11.55;;
7841;SDS011;3966;51.052;13.820;2022-11-20T03:43:53;34.97;;;12.10;;
7841;SDS011;3966;51.052;13.820;2022-11-20T03:46:20;32.22;;;11.00;;
7841;SDS011;3966;51.052;13.820;2022-11-20T03:48:46;32.92;;;11.57;;
7841;SDS011;3966;51.052;13.820;2022-11-20T03:53:43;33.25;;;11.77;;
7841;SDS011;3966;51.052;13.820;2022-11-20T03:56:10;35.03;;;11.85;;
7841;SDS011;3966;51.052;13.820;2022-11-20T03:58:36;38.80;;;12.18;;
7841;SDS011;3966;51.052;13.820;2022-11-20T04:01:06;37.15;;;12.35;;
7841;SDS011;3966;51.052;13.820;2022-11-20T04:03:33;40.08;;;12.13;;
7841;SDS011;3966;51.052;13.820;2022-11-20T04:06:03;32.38;;;10.90;;
7841;SDS011;3966;51.052;13.820;2022-11-20T04:08:34;32.65;;;11.75;;
7841;SDS011;3966;51.052;13.820;2022-11-20T04:13:42;36.75;;;12.10;;
7841;SDS011;3966;51.052;13.820;2022-11-20T04:16:12;40.90;;;11.70;;
7841;SDS011;3966;51.052;13.820;2022-11-20T04:18:37;36.00;;;12.15;;
7841;SDS011;3966;51.052;13.820;2022-11-20T04:21:03;31.92;;;10.93;;
7841;SDS011;3966;51.052;13.820;2022-11-20T04:23:30;30.63;;;10.25;;
7841;SDS011;3966;51.052;13.820;2022-11-20T04:26:06;35.67;;;12.38;;
7841;SDS011;3966;51.052;13.820;2022-11-20T04:28:37;35.00;;;12.02;;
7841;SDS011;3966;51.052;13.820;2022-11-20T04:31:13;35.45;;;12.25;;
7841;SDS011;3966;51.052;13.820;2022-11-20T04:33:43;37.85;;;12.55;;
7841;SDS011;3966;51.052;13.820;2022-11-20T04:36:14;38.08;;;12.55;;
7841;SDS011;3966;51.052;13.820;2022-11-20T04:38:41;39.17;;;12.02;;
7841;SDS011;3966;51.052;13.820;2022-11-20T04:41:08;35.30;;;11.95;;
7841;SDS011;3966;51.052;13.820;2022-11-20T04:43:46;39.85;;;11.60;;
7841;SDS011;3966;51.052;13.820;2022-11-20T04:46:13;35.28;;;11.93;;
7841;SDS011;3966;51.052;13.820;2022-11-20T04:48:39;29.42;;;9.90;;
7841;SDS011;3966;51.052;13.820;2022-11-20T04:51:05;35.58;;;11.70;;
7841;SDS011;3966;51.052;13.820;2022-11-20T04:53:31;44.35;;;12.98;;
7841;SDS011;3966;51.052;13.820;2022-11-20T04:56:00;32.15;;;11.32;;
7841;SDS011;3966;51.052;13.820;2022-11-20T04:58:27;31.58;;;12.23;;
7841;SDS011;3966;51.052;13.820;2022-11-20T05:00:52;37.13;;;11.90;;
7841;SDS011;3966;51.052;13.820;2022-11-20T05:03:18;38.05;;;12.30;;
7841;SDS011;3966;51.052;13.820;2022-11-20T05:05:43;38.47;;;11.85;;
7841;SDS011;3966;51.052;13.820;2022-11-20T05:08:09;34.25;;;11.30;;
7841;SDS011;3966;51.052;13.820;2022-11-20T05:10:34;29.10;;;11.02;;
7841;SDS011;3966;51.052;13.820;2022-11-20T05:13:00;36.85;;;11.00;;
7841;SDS011;3966;51.052;13.820;2022-11-20T05:15:25;36.38;;;12.50;;
7841;SDS011;3966;51.052;13.820;2022-11-20T05:17:51;38.85;;;12.32;;
7841;SDS011;3966;51.052;13.820;2022-11-20T05:20:18;35.00;;;12.73;;
7841;SDS011;3966;51.052;13.820;2022-11-20T05:22:44;36.38;;;12.32;;
7841;SDS011;3966;51.052;13.820;2022-11-20T05:25:10;34.90;;;12.70;;
7841;SDS011;3966;51.052;13.820;2022-11-20T05:27:36;33.95;;;10.18;;
7841;SDS011;3966;51.052;13.820;2022-11-20T05:30:02;37.00;;;11.88;;
7841;SDS011;3966;51.052;13.820;2022-11-20T05:32:28;39.75;;;11.63;;
7841;SDS011;3966;51.052;13.820;2022-11-20T05:34:54;38.72;;;11.85;;
7841;SDS011;3966;51.052;13.820;2022-11-20T05:37:19;40.63;;;12.98;;
7841;SDS011;3966;51.052;13.820;2022-11-20T05:39:45;36.53;;;11.45;;
7841;SDS011;3966;51.052;13.820;2022-11-20T05:42:10;36.92;;;12.30;;
7841;SDS011;3966;51.052;13.820;2022-11-20T05:44:54;35.88;;;10.85;;
7841;SDS011;3966;51.052;13.820;2022-11-20T05:47:20;38.30;;;12.38;;
7841;SDS011;3966;51.052;13.820;2022-11-20T05:49:46;40.80;;;12.35;;
7841;SDS011;3966;51.052;13.820;2022-11-20T05:52:11;36.55;;;10.75;;
7841;SDS011;3966;51.052;13.820;2022-11-20T05:54:37;32.28;;;11.30;;
7841;SDS011;3966;51.052;13.820;2022-11-20T05:57:02;37.65;;;12.40;;
7841;SDS011;3966;51.052;13.820;2022-11-20T05:59:28;32.20;;;12.32;;
7841;SDS011;3966;51.052;13.820;2022-11-20T06:01:54;47.25;;;12.68;;
7841;SDS011;3966;51.052;13.820;2022-11-20T06:04:19;36.28;;;12.77;;
7841;SDS011;3966;51.052;13.820;2022-11-20T06:06:44;34.90;;;12.07;;
7841;SDS011;3966;51.052;13.820;2022-11-20T06:09:10;30.63;;;11.48;;
7841;SDS011;3966;51.052;13.820;2022-11-20T06:11:36;38.58;;;12.25;;
7841;SDS011;3966;51.052;13.820;2022-11-20T06:14:01;33.50;;;11.35;;
7841;SDS011;3966;51.052;13.820;2022-11-20T06:16:27;38.20;;;11.70;;
7841;SDS011;3966;51.052;13.820;2022-11-20T06:18:52;38.38;;;12.63;;
7841;SDS011;3966;51.052;13.820;2022-11-20T06:21:18;41.80;;;12.23;;
7841;SDS011;3966;51.052;13.820;2022-11-20T06:23:46;37.33;;;11.90;;
7841;SDS011;3966;51.052;13.820;2022-11-20T06:26:13;32.58;;;10.35;;
7841;SDS011;3966;51.052;13.820;2022-11-20T06:28:43;32.08;;;11.65;;
7841;SDS011;3966;51.052;13.820;2022-11-20T06:31:10;33.28;;;11.85;;
7841;SDS011;3966;51.052;13.820;2022-11-20T06:33:38;34.38;;;12.63;;
7841;SDS011;3966;51.052;13.820;2022-11-20T06:36:04;37.75;;;11.05;;
7841;SDS011;3966;51.052;13.820;2022-11-20T06:38:29;40.65;;;12.40;;
7841;SDS011;3966;51.052;13.820;2022-11-20T06:40:55;38.88;;;12.57;;
7841;SDS011;3966;51.052;13.820;2022-11-20T06:43:21;44.20;;;12.93;;
7841;SDS011;3966;51.052;13.820;2022-11-20T06:45:51;39.03;;;12.15;;
7841;SDS011;3966;51.052;13.820;2022-11-20T06:48:18;38.97;;;11.68;;
7841;SDS011;3966;51.052;13.820;2022-11-20T06:50:44;34.42;;;11.75;;
7841;SDS011;3966;51.052;13.820;2022-11-20T06:53:09;33.42;;;12.35;;
7841;SDS011;3966;51.052;13.820;2022-11-20T06:55:35;32.05;;;10.73;;
7841;SDS011;3966;51.052;13.820;2022-11-20T06:58:00;40.65;;;12.68;;
7841;SDS011;3966;51.052;13.820;2022-11-20T07:00:26;36.40;;;11.82;;
7841;SDS011;3966;51.052;13.820;2022-11-20T07:02:51;35.42;;;11.75;;
7841;SDS011;3966;51.052;13.820;2022-11-20T07:05:17;33.22;;;11.18;;
7841;SDS011;3966;51.052;13.820;2022-11-20T07:07:42;38.53;;;12.63;;
7841;SDS011;3966;51.052;13.820;2022-11-20T07:10:08;37.50;;;11.63;;
7841;SDS011;3966;51.052;13.820;2022-11-20T07:12:34;31.23;;;11.27;;
7841;SDS011;3966;51.052;13.820;2022-11-20T07:15:00;37.17;;;12.00;;
7841;SDS011;3966;51.052;13.820;2022-11-20T07:17:26;35.97;;;12.63;;
7841;SDS011;3966;51.052;13.820;2022-11-20T07:19:51;32.60;;;11.77;;
7841;SDS011;3966;51.052;13.820;2022-11-20T07:22:17;36.83;;;12.80;;
7841;SDS011;3966;51.052;13.820;2022-11-20T07:24:43;34.10;;;11.20;;
7841;SDS011;3966;51.052;13.820;2022-11-20T07:27:08;34.88;;;11.63;;
7841;SDS011;3966;51.052;13.820;2022-11-20T07:29:34;46.50;;;13.60;;
7841;SDS011;3966;51.052;13.820;2022-11-20T07:31:59;42.38;;;12.60;;
7841;SDS011;3966;51.052;13.820;2022-11-20T07:34:25;40.67;;;12.88;;
7841;SDS011;3966;51.052;13.820;2022-11-20T07:36:50;43.95;;;13.38;;
7841;SDS011;3966;51.052;13.820;2022-11-20T07:39:16;40.72;;;13.15;;
7841;SDS011;3966;51.052;13.820;2022-11-20T07:41:41;40.67;;;12.75;;
7841;SDS011;3966;51.052;13.820;2022-11-20T07:44:07;38.83;;;12.77;;
7841;SDS011;3966;51.052;13.820;2022-11-20T07:46:32;41.53;;;13.30;;
7841;SDS011;3966;51.052;13.820;2022-11-20T07:48:58;42.55;;;15.43;;
7841;SDS011;3966;51.052;13.820;2022-11-20T07:51:23;43.45;;;14.25;;
7841;SDS011;3966;51.052;13.820;2022-11-20T07:53:51;45.60;;;14.18;;
7841;SDS011;3966;51.052;13.820;2022-11-20T07:56:17;38.42;;;12.60;;
7841;SDS011;3966;51.052;13.820;2022-11-20T07:58:42;41.40;;;14.00;;
7841;SDS011;3966;51.052;13.820;2022-11-20T08:01:08;45.88;;;14.57;;
7841;SDS011;3966;51.052;13.820;2022-11-20T08:03:33;38.38;;;13.88;;
7841;SDS011;3966;51.052;13.820;2022-11-20T08:06:00;44.55;;;14.18;;
7841;SDS011;3966;51.052;13.820;2022-11-20T08:08:26;36.90;;;13.52;;
7841;SDS011;3966;51.052;13.820;2022-11-20T08:10:53;40.63;;;14.45;;
7841;SDS011;3966;51.052;13.820;2022-11-20T08:13:38;48.25;;;14.40;;
7841;SDS011;3966;51.052;13.820;2022-11-20T08:16:23;48.20;;;14.40;;
7841;SDS011;3966;51.052;13.820;2022-11-20T08:18:48;41.45;;;13.73;;
7841;SDS011;3966;51.052;13.820;2022-11-20T08:21:14;43.92;;;14.25;;
7841;SDS011;3966;51.052;13.820;2022-11-20T08:23:40;53.05;;;14.85;;
7841;SDS011;3966;51.052;13.820;2022-11-20T08:26:05;41.88;;;14.57;;
7841;SDS011;3966;51.052;13.820;2022-11-20T08:28:31;46.63;;;15.00;;
7841;SDS011;3966;51.052;13.820;2022-11-20T08:30:58;48.08;;;15.25;;
7841;SDS011;3966;51.052;13.820;2022-11-20T08:33:27;69.00;;;20.92;;
7841;SDS011;3966;51.052;13.820;2022-11-20T08:35:53;94.43;;;25.83;;
7841;SDS011;3966;51.052;13.820;2022-11-20T08:38:26;83.95;;;22.58;;
7841;SDS011;3966;51.052;13.820;2022-11-20T08:40:55;68.03;;;19.13;;
7841;SDS011;3966;51.052;13.820;2022-11-20T08:43:43;50.25;;;16.65;;
7841;SDS011;3966;51.052;13.820;2022-11-20T08:46:09;47.22;;;16.83;;
7841;SDS011;3966;51.052;13.820;2022-11-20T08:48:35;54.67;;;17.38;;
7841;SDS011;3966;51.052;13.820;2022-11-20T08:51:00;55.72;;;18.40;;
7841;SDS011;3966;51.052;13.820;2022-11-20T08:53:26;62.30;;;18.35;;
7841;SDS011;3966;51.052;13.820;2022-11-20T08:55:52;52.70;;;18.05;;
7841;SDS011;3966;51.052;13.820;2022-11-20T08:58:18;54.28;;;17.48;;
7841;SDS011;3966;51.052;13.820;2022-11-20T09:00:43;55.63;;;17.33;;
7841;SDS011;3966;51.052;13.820;2022-11-20T09:03:09;43.53;;;16.33;;
7841;SDS011;3966;51.052;13.820;2022-11-20T09:05:34;46.78;;;16.63;;
7841;SDS011;3966;51.052;13.820;2022-11-20T09:08:02;69.55;;;21.40;;
7841;SDS011;3966;51.052;13.820;2022-11-20T09:10:28;46.03;;;15.55;;
7841;SDS011;3966;51.052;13.820;2022-11-20T09:12:54;55.42;;;18.17;;
7841;SDS011;3966;51.052;13.820;2022-11-20T09:15:20;49.67;;;16.73;;
7841;SDS011;3966;51.052;13.820;2022-11-20T09:17:52;47.55;;;15.65;;
7841;SDS011;3966;51.052;13.820;2022-11-20T09:20:23;50.03;;;17.00;;
7841;SDS011;3966;51.052;13.820;2022-11-20T09:22:49;47.28;;;15.68;;
7841;SDS011;3966;51.052;13.820;2022-11-20T09:25:15;46.67;;;15.30;;
7841;SDS011;3966;51.052;13.820;2022-11-20T09:27:41;47.17;;;15.77;;
7841;SDS011;3966;51.052;13.820;2022-11-20T09:30:08;45.90;;;16.13;;
7841;SDS011;3966;51.052;13.820;2022-11-20T09:32:34;48.05;;;16.80;;
7841;SDS011;3966;51.052;13.820;2022-11-20T09:35:00;46.80;;;15.68;;
7841;SDS011;3966;51.052;13.820;2022-11-20T09:37:26;43.78;;;15.60;;
7841;SDS011;3966;51.052;13.820;2022-11-20T09:39:52;45.50;;;14.73;;
7841;SDS011;3966;51.052;13.820;2022-11-20T09:42:22;38.20;;;12.30;;
7841;SDS011;3966;51.052;13.820;2022-11-20T09:45:05;41.58;;;13.73;;
7841;SDS011;3966;51.052;13.820;2022-11-20T09:50:32;41.70;;;13.65;;
7841;SDS011;3966;51.052;13.820;2022-11-20T09:56:03;30.10;;;10.93;;
7841;SDS011;3966;51.052;13.820;2022-11-20T09:58:31;25.88;;;9.93;;
7841;SDS011;3966;51.052;13.820;2022-11-20T10:01:07;23.95;;;9.32;;
7841;SDS011;3966;51.052;13.820;2022-11-20T10:06:33;27.40;;;10.00;;
7841;SDS011;3966;51.052;13.820;2022-11-20T10:09:06;21.40;;;8.23;;
7841;SDS011;3966;51.052;13.820;2022-11-20T10:17:08;25.17;;;9.27;;
7841;SDS011;3966;51.052;13.820;2022-11-20T10:25:14;23.15;;;9.18;;
7841;SDS011;3966;51.052;13.820;2022-11-20T10:30:17;20.63;;;7.82;;
7841;SDS011;3966;51.052;13.820;2022-11-20T10:32:47;18.63;;;8.70;;
7841;SDS011;3966;51.052;13.820;2022-11-20T10:41:03;17.63;;;7.65;;
7841;SDS011;3966;51.052;13.820;2022-11-20T10:43:49;15.98;;;7.15;;
7841;SDS011;3966;51.052;13.820;2022-11-20T10:46:39;24.05;;;7.85;;
7841;SDS011;3966;51.052;13.820;2022-11-20T10:49:15;16.35;;;7.15;;
7841;SDS011;3966;51.052;13.820;2022-11-20T11:00:04;16.67;;;7.25;;
7841;SDS011;3966;51.052;13.820;2022-11-20T11:03:14;16.40;;;6.20;;
7841;SDS011;3966;51.052;13.820;2022-11-20T11:05:44;14.85;;;6.28;;
7841;SDS011;3966;51.052;13.820;2022-11-20T11:08:17;14.52;;;6.07;;
7841;SDS011;3966;51.052;13.820;2022-11-20T11:10:50;15.95;;;6.70;;
7841;SDS011;3966;51.052;13.820;2022-11-20T11:13:28;19.58;;;6.93;;
7841;SDS011;3966;51.052;13.820;2022-11-20T11:15:55;18.48;;;7.13;;
7841;SDS011;3966;51.052;13.820;2022-11-20T11:18:31;15.50;;;7.00;;
7841;SDS011;3966;51.052;13.820;2022-11-20T11:21:03;13.00;;;6.20;;
7841;SDS011;3966;51.052;13.820;2022-11-20T11:23:37;14.07;;;6.22;;
7841;SDS011;3966;51.052;13.820;2022-11-20T11:26:18;16.52;;;6.93;;
7841;SDS011;3966;51.052;13.820;2022-11-20T11:31:42;21.02;;;7.97;;
7841;SDS011;3966;51.052;13.820;2022-11-20T11:34:12;19.67;;;8.00;;
7841;SDS011;3966;51.052;13.820;2022-11-20T11:36:40;25.98;;;9.80;;
7841;SDS011;3966;51.052;13.820;2022-11-20T11:39:16;23.33;;;8.15;;
7841;SDS011;3966;51.052;13.820;2022-11-20T11:41:44;19.08;;;6.63;;
7841;SDS011;3966;51.052;13.820;2022-11-20T11:44:21;17.40;;;6.93;;
7841;SDS011;3966;51.052;13.820;2022-11-20T11:47:21;24.73;;;7.82;;
7841;SDS011;3966;51.052;13.820;2022-11-20T11:50:01;19.80;;;7.55;;
7841;SDS011;3966;51.052;13.820;2022-11-20T11:52:42;17.75;;;7.38;;
7841;SDS011;3966;51.052;13.820;2022-11-20T11:55:15;12.82;;;5.90;;
7841;SDS011;3966;51.052;13.820;2022-11-20T11:57:54;16.05;;;6.95;;
7841;SDS011;3966;51.052;13.820;2022-11-20T12:00:51;15.95;;;6.40;;
7841;SDS011;3966;51.052;13.820;2022-11-20T12:03:36;13.00;;;6.45;;
7841;SDS011;3966;51.052;13.820;2022-11-20T12:06:25;13.82;;;5.22;;
7841;SDS011;3966;51.052;13.820;2022-11-20T12:08:55;12.20;;;5.72;;
7841;SDS011;3966;51.052;13.820;2022-11-20T12:14:37;13.75;;;5.95;;
7841;SDS011;3966;51.052;13.820;2022-11-20T12:17:10;11.93;;;5.75;;
7841;SDS011;3966;51.052;13.820;2022-11-20T12:19:37;12.95;;;6.05;;
7841;SDS011;3966;51.052;13.820;2022-11-20T12:32:43;12.55;;;5.47;;
7841;SDS011;3966;51.052;13.820;2022-11-20T12:39:21;15.52;;;6.18;;
7841;SDS011;3966;51.052;13.820;2022-11-20T12:41:33;12.43;;;6.53;;
7841;SDS011;3966;51.052;13.820;2022-11-20T12:47:45;9.32;;;5.15;;
7841;SDS011;3966;51.052;13.820;2022-11-20T12:59:27;14.32;;;5.85;;
7841;SDS011;3966;51.052;13.820;2022-11-20T13:01:51;16.30;;;5.97;;
7841;SDS011;3966;51.052;13.820;2022-11-20T13:07:02;11.68;;;5.65;;
7841;SDS011;3966;51.052;13.820;2022-11-20T13:09:30;15.13;;;5.13;;
7841;SDS011;3966;51.052;13.820;2022-11-20T13:12:06;12.73;;;4.82;;
7841;SDS011;3966;51.052;13.820;2022-11-20T13:17:21;11.95;;;5.32;;
7841;SDS011;3966;51.052;13.820;2022-11-20T13:19:59;28.55;;;10.13;;
7841;SDS011;3966;51.052;13.820;2022-11-20T13:25:30;13.00;;;5.82;;
7841;SDS011;3966;51.052;13.820;2022-11-20T13:27:57;14.30;;;6.18;;
7841;SDS011;3966;51.052;13.820;2022-11-20T13:30:25;13.65;;;6.13;;
7841;SDS011;3966;51.052;13.820;2022-11-20T13:32:56;14.45;;;6.70;;
7841;SDS011;3966;51.052;13.820;2022-11-20T13:35:33;15.40;;;6.32;;
7841;SDS011;3966;51.052;13.820;2022-11-20T13:40:56;14.40;;;5.63;;
7841;SDS011;3966;51.052;13.820;2022-11-20T13:43:34;8.90;;;4.15;;
7841;SDS011;3966;51.052;13.820;2022-11-20T13:46:04;12.07;;;4.70;;
7841;SDS011;3966;51.052;13.820;2022-11-20T13:48:32;9.00;;;4.63;;
7841;SDS011;3966;51.052;13.820;2022-11-20T14:02:05;8.63;;;4.50;;
7841;SDS011;3966;51.052;13.820;2022-11-20T14:04:38;11.80;;;5.15;;
7841;SDS011;3966;51.052;13.820;2022-11-20T14:07:11;7.75;;;4.15;;
7841;SDS011;3966;51.052;13.820;2022-11-20T14:09:37;9.10;;;4.60;;
7841;SDS011;3966;51.052;13.820;2022-11-20T14:12:03;9.68;;;4.43;;
7841;SDS011;3966;51.052;13.820;2022-11-20T14:14:47;11.20;;;4.97;;
7841;SDS011;3966;51.052;13.820;2022-11-20T14:19:47;14.00;;;4.82;;
7841;SDS011;3966;51.052;13.820;2022-11-20T14:22:24;8.68;;;4.50;;
7841;SDS011;3966;51.052;13.820;2022-11-20T14:25:36;10.73;;;5.10;;
7841;SDS011;3966;51.052;13.820;2022-11-20T14:27:37;10.80;;;4.57;;
7841;SDS011;3966;51.052;13.820;2022-11-20T14:30:06;10.40;;;4.43;;
7841;SDS011;3966;51.052;13.820;2022-11-20T14:32:42;17.80;;;6.00;;
7841;SDS011;3966;51.052;13.820;2022-11-20T14:35:13;12.73;;;4.88;;
7841;SDS011;3966;51.052;13.820;2022-11-20T14:38:02;9.75;;;4.88;;
7841;SDS011;3966;51.052;13.820;2022-11-20T14:40:30;10.02;;;4.45;;
7841;SDS011;3966;51.052;13.820;2022-11-20T14:45:59;15.82;;;6.15;;
7841;SDS011;3966;51.052;13.820;2022-11-20T14:48:29;10.77;;;4.85;;
7841;SDS011;3966;51.052;13.820;2022-11-20T14:51:02;9.23;;;4.47;;
7841;SDS011;3966;51.052;13.820;2022-11-20T14:53:27;10.13;;;5.03;;
7841;SDS011;3966;51.052;13.820;2022-11-20T14:55:57;12.75;;;6.15;;
7841;SDS011;3966;51.052;13.820;2022-11-20T14:58:26;11.93;;;5.22;;
7841;SDS011;3966;51.052;13.820;2022-11-20T15:00:54;12.13;;;5.68;;
7841;SDS011;3966;51.052;13.820;2022-11-20T15:03:32;10.77;;;4.85;;
7841;SDS011;3966;51.052;13.820;2022-11-20T15:06:04;12.85;;;5.80;;
7841;SDS011;3966;51.052;13.820;2022-11-20T15:08:38;12.93;;;5.72;;
7841;SDS011;3966;51.052;13.820;2022-11-20T15:11:14;9.23;;;5.25;;
7841;SDS011;3966;51.052;13.820;2022-11-20T15:13:48;12.02;;;6.40;;
7841;SDS011;3966;51.052;13.820;2022-11-20T15:16:18;11.43;;;5.50;;
7841;SDS011;3966;51.052;13.820;2022-11-20T15:18:45;13.93;;;5.40;;
7841;SDS011;3966;51.052;13.820;2022-11-20T15:21:14;10.88;;;5.60;;
7841;SDS011;3966;51.052;13.820;2022-11-20T15:23:42;8.63;;;5.25;;
7841;SDS011;3966;51.052;13.820;2022-11-20T15:26:08;10.35;;;5.25;;
7841;SDS011;3966;51.052;13.820;2022-11-20T15:28:42;12.20;;;4.72;;
7841;SDS011;3966;51.052;13.820;2022-11-20T15:31:11;10.80;;;5.32;;
7841;SDS011;3966;51.052;13.820;2022-11-20T15:33:37;11.65;;;5.38;;
7841;SDS011;3966;51.052;13.820;2022-11-20T15:36:03;13.00;;;6.20;;
7841;SDS011;3966;51.052;13.820;2022-11-20T15:38:29;10.98;;;5.38;;
7841;SDS011;3966;51.052;13.820;2022-11-20T15:40:55;12.27;;;5.50;;
7841;SDS011;3966;51.052;13.820;2022-11-20T15:43:21;10.95;;;5.45;;
7841;SDS011;3966;51.052;13.820;2022-11-20T15:45:55;10.05;;;4.95;;
7841;SDS011;3966;51.052;13.820;2022-11-20T15:48:27;15.27;;;5.18;;
7841;SDS011;3966;51.052;13.820;2022-11-20T15:51:38;11.70;;;5.60;;
7841;SDS011;3966;51.052;13.820;2022-11-20T15:53:52;11.65;;;5.95;;
7841;SDS011;3966;51.052;13.820;2022-11-20T15:56:17;9.48;;;5.15;;
7841;SDS011;3966;51.052;13.820;2022-11-20T15:58:43;11.40;;;5.75;;
7841;SDS011;3966;51.052;13.820;2022-11-20T16:01:10;11.15;;;5.20;;
7841;SDS011;3966;51.052;13.820;2022-11-20T16:03:40;15.25;;;5.60;;
7841;SDS011;3966;51.052;13.820;2022-11-20T16:06:06;17.77;;;6.75;;
7841;SDS011;3966;51.052;13.820;2022-11-20T16:08:32;18.55;;;7.03;;
7841;SDS011;3966;51.052;13.820;2022-11-20T16:10:57;14.90;;;5.35;;
7841;SDS011;3966;51.052;13.820;2022-11-20T16:13:23;15.30;;;7.15;;
7841;SDS011;3966;51.052;13.820;2022-11-20T16:16:07;12.35;;;5.70;;
7841;SDS011;3966;51.052;13.820;2022-11-20T16:18:44;9.80;;;5.55;;
7841;SDS011;3966;51.052;13.820;2022-11-20T16:21:12;13.73;;;6.57;;
7841;SDS011;3966;51.052;13.820;2022-11-20T16:23:38;14.30;;;6.38;;
7841;SDS011;3966;51.052;13.820;2022-11-20T16:26:14;13.20;;;6.20;;
7841;SDS011;3966;51.052;13.820;2022-11-20T16:28:42;13.52;;;6.05;;
7841;SDS011;3966;51.052;13.820;2022-11-20T16:31:17;12.43;;;5.93;;
7841;SDS011;3966;51.052;13.820;2022-11-20T16:33:50;14.05;;;7.28;;